Time;durP1;ratioP1;P1;durP2;ratioP2;P2;SDS_P1;SDS_P2;PMS_P1;PMS_P2;Temp;Humidity;BMP_temperature;BMP_pressure;BME280_temperature;BME280_humidity;BME280_pressure;Samples;Min_cycle;Max_cycle;Signal;HPM_P1;HPM_P2
2023/04/24 00:00:34;;;;;;;14.23;8.20;;;;;;;9.82;57.05;99821.14;1379649;94;21996;-82
2023/04/24 00:03:00;;;;;;;10.80;8.10;;;;;;;9.75;58.38;99815.31;1398181;94;22800;-82
2023/04/24 00:05:27;;;;;;;13.70;8.47;;;;;;;9.64;58.29;99809.83;1397210;94;21454;-82
2023/04/24 00:07:54;;;;;;;19.73;9.47;;;;;;;9.58;58.40;99811.74;1394221;94;21536;-84
2023/04/24 00:10:20;;;;;;;14.70;8.60;;;;;;;9.49;59.01;99807.75;1395428;94;22579;-84
2023/04/24 00:12:46;;;;;;;16.13;9.30;;;;;;;9.39;59.84;99808.34;1396259;94;21551;-83
2023/04/24 00:15:13;;;;;;;15.53;9.17;;;;;;;9.30;60.81;99805.81;1394238;94;21469;-84
2023/04/24 00:17:39;;;;;;;14.43;8.30;;;;;;;9.21;61.35;99803.10;1394868;94;21460;-84
2023/04/24 00:20:07;;;;;;;18.17;9.30;;;;;;;9.13;61.10;99799.58;1394592;94;21491;-83
2023/04/24 00:22:33;;;;;;;17.53;9.63;;;;;;;9.07;60.34;99806.30;1396185;94;21663;-83
2023/04/24 00:24:59;;;;;;;12.07;8.90;;;;;;;9.03;61.45;99799.64;1396337;94;21521;-83
2023/04/24 00:27:26;;;;;;;14.80;8.53;;;;;;;9.00;62.00;99792.03;1397068;94;22326;-83
2023/04/24 00:29:52;;;;;;;13.67;7.80;;;;;;;8.96;62.64;99796.80;1394728;93;22535;-82
2023/04/24 00:32:19;;;;;;;17.03;9.63;;;;;;;8.98;62.71;99790.88;1389994;94;21469;-84
2023/04/24 00:34:45;;;;;;;12.83;8.37;;;;;;;8.96;62.59;99788.88;1393886;94;21788;-83
2023/04/24 00:37:12;;;;;;;12.63;7.47;;;;;;;8.95;62.96;99790.37;1397021;94;21513;-83
2023/04/24 00:39:38;;;;;;;10.87;7.17;;;;;;;8.92;63.16;99791.50;1397746;94;21514;-81
2023/04/24 00:42:06;;;;;;;13.33;8.50;;;;;;;8.88;62.56;99791.45;1395724;93;21513;-81
2023/04/24 00:44:34;;;;;;;11.93;8.00;;;;;;;8.84;62.17;99790.11;1395512;94;21662;-81
2023/04/24 00:47:01;;;;;;;14.33;7.83;;;;;;;8.80;61.92;99787.41;1396620;94;21520;-82
2023/04/24 00:49:28;;;;;;;15.97;8.67;;;;;;;8.76;62.57;99786.89;1390054;94;21544;-81
2023/04/24 00:51:54;;;;;;;13.50;8.93;;;;;;;8.73;62.70;99787.69;1393998;94;21684;-80
2023/04/24 00:54:20;;;;;;;16.33;8.20;;;;;;;8.69;63.42;99779.72;1396820;94;21417;-81
2023/04/24 00:56:47;;;;;;;16.23;7.93;;;;;;;8.62;63.73;99780.00;1393543;94;22316;-80
2023/04/24 00:59:16;;;;;;;16.63;9.03;;;;;;;8.53;64.27;99778.60;1394676;93;21506;-81
2023/04/24 01:01:43;;;;;;;16.63;9.10;;;;;;;8.49;64.17;99774.63;1391224;94;21506;-81
2023/04/24 01:04:11;;;;;;;13.80;9.70;;;;;;;8.40;64.68;99774.67;1393701;94;21620;-81
2023/04/24 01:06:39;;;;;;;17.70;7.97;;;;;;;8.34;64.87;99774.74;1390666;93;21469;-81
2023/04/24 01:09:09;;;;;;;15.57;7.87;;;;;;;8.31;65.63;99779.83;1325202;94;21477;-80
2023/04/24 01:11:37;;;;;;;9.45;6.58;;;;;;;8.28;65.85;99781.44;1324128;94;21409;-82
2023/04/24 01:14:04;;;;;;;15.10;8.53;;;;;;;8.28;66.18;99777.98;1330273;93;21402;-82
2023/04/24 01:16:30;;;;;;;15.33;9.13;;;;;;;8.26;66.29;99779.47;1380255;94;21490;-81
2023/04/24 01:18:56;;;;;;;13.77;8.83;;;;;;;8.25;66.63;99779.59;1394864;94;22481;-82
2023/04/24 01:21:27;;;;;;;13.47;8.23;;;;;;;8.21;66.91;99779.07;1395487;94;21601;-83
2023/04/24 01:23:55;;;;;;;17.57;9.30;;;;;;;8.14;68.03;99778.84;1390223;94;21682;-83
2023/04/24 01:26:23;;;;;;;14.03;9.53;;;;;;;8.08;67.78;99775.95;1396742;94;21468;-82
2023/04/24 01:28:49;;;;;;;12.07;8.13;;;;;;;7.99;67.70;99775.02;1394561;94;21505;-82
2023/04/24 01:31:16;;;;;;;17.30;9.53;;;;;;;7.93;67.62;99774.30;1398006;94;21550;-82
2023/04/24 01:33:43;;;;;;;27.13;10.47;;;;;;;7.75;67.56;99770.79;1392672;94;21512;-83
2023/04/24 01:36:11;;;;;;;14.10;8.60;;;;;;;7.75;67.56;99770.79;1396931;94;21543;-83
2023/04/24 01:38:38;;;;;;;17.13;10.37;;;;;;;7.54;68.64;99770.53;1395224;94;21647;-83
2023/04/24 01:41:04;;;;;;;13.17;8.47;;;;;;;7.38;70.06;99782.14;1397081;94;22534;-84
2023/04/24 01:43:31;;;;;;;18.87;9.50;;;;;;;7.18;71.16;99778.23;1391133;94;21549;-83
2023/04/24 01:45:57;;;;;;;11.33;7.97;;;;;;;7.02;72.02;99770.11;1380705;94;22385;-84
2023/04/24 01:48:24;;;;;;;12.50;8.60;;;;;;;6.91;71.39;99761.05;1398251;94;22146;-83
2023/04/24 01:50:50;;;;;;;13.03;8.90;;;;;;;6.91;71.39;99761.05;1395147;93;22347;-82
2023/04/24 01:53:16;;;;;;;16.97;8.47;;;;;;;7.00;70.81;99769.41;1394644;94;21630;-82
2023/04/24 01:55:43;;;;;;;16.60;9.63;;;;;;;7.04;70.92;99772.09;1389196;94;22200;-82
2023/04/24 01:58:09;;;;;;;14.87;9.63;;;;;;;7.07;70.69;99763.91;1393939;94;23238;-83
2023/04/24 02:00:36;;;;;;;15.70;9.00;;;;;;;7.11;70.58;99769.75;1395050;94;22244;-81
2023/04/24 02:03:02;;;;;;;16.23;9.83;;;;;;;7.10;69.51;99768.89;1394480;94;22265;-82
2023/04/24 02:05:28;;;;;;;16.80;9.40;;;;;;;7.06;69.99;99771.47;1397315;94;22207;-82
2023/04/24 02:07:54;;;;;;;14.63;9.87;;;;;;;7.00;70.45;99764.14;1396256;94;23772;-82
2023/04/24 02:10:21;;;;;;;19.20;10.57;;;;;;;7.00;70.45;99764.14;1395022;94;21498;-84
2023/04/24 02:12:47;;;;;;;17.27;10.03;;;;;;;6.97;69.85;99765.25;1396741;94;23393;-82
2023/04/24 02:15:13;;;;;;;12.83;9.13;;;;;;;6.95;70.84;99765.05;1394676;93;22216;-84
2023/04/24 02:17:39;;;;;;;14.83;9.30;;;;;;;6.94;70.75;99771.28;1396809;94;22685;-83
2023/04/24 02:20:07;;;;;;;13.80;9.03;;;;;;;6.93;71.45;99759.94;1394441;94;22214;-84
2023/04/24 02:22:34;;;;;;;15.00;9.87;;;;;;;6.95;71.15;99755.84;1394630;94;23177;-83
2023/04/24 02:25:00;;;;;;;15.83;10.00;;;;;;;6.94;70.98;99756.81;1393444;94;22192;-82
2023/04/24 02:27:26;;;;;;;17.07;9.67;;;;;;;6.92;71.26;99762.70;1397989;93;22216;-82
2023/04/24 02:29:52;;;;;;;16.87;9.40;;;;;;;6.86;71.25;99758.00;1393144;94;23023;-83
2023/04/24 02:32:19;;;;;;;21.20;10.33;;;;;;;6.80;71.52;99758.07;1399457;94;22296;-83
2023/04/24 02:34:45;;;;;;;19.60;10.20;;;;;;;6.76;72.45;99758.84;1393509;94;22351;-83
2023/04/24 02:37:11;;;;;;;15.83;10.20;;;;;;;6.70;72.41;99759.41;1396749;94;22330;-84
2023/04/24 02:39:37;;;;;;;12.97;8.87;;;;;;;6.65;72.30;99755.04;1394305;94;23762;-83
2023/04/24 02:42:04;;;;;;;17.37;9.83;;;;;;;6.65;72.14;99755.04;1394965;94;24604;-82
2023/04/24 02:44:30;;;;;;;19.20;9.73;;;;;;;6.66;72.56;99760.62;1396024;93;22259;-83
2023/04/24 02:46:57;;;;;;;12.97;9.07;;;;;;;6.69;71.95;99757.72;1393828;94;22216;-82
2023/04/24 02:49:24;;;;;;;15.07;8.77;;;;;;;6.71;72.08;99754.48;1397070;94;22147;-83
2023/04/24 02:51:50;;;;;;;10.50;7.80;;;;;;;6.72;74.19;99753.50;1379318;94;22362;-84
2023/04/24 02:54:16;;;;;;;14.83;9.40;;;;;;;6.75;73.96;99754.53;1397676;94;22210;-83
2023/04/24 02:56:42;;;;;;;14.47;9.30;;;;;;;6.72;73.06;99752.19;1398862;94;22991;-82
2023/04/24 02:59:08;;;;;;;16.17;9.70;;;;;;;6.68;72.86;99746.88;1398128;94;22214;-84
2023/04/24 03:01:35;;;;;;;16.97;10.03;;;;;;;6.64;72.90;99753.36;1391895;94;22141;-81
2023/04/24 03:04:01;;;;;;;22.80;10.80;;;;;;;6.64;72.35;99753.36;1392878;94;22244;-80
2023/04/24 03:06:28;;;;;;;13.10;10.13;;;;;;;6.60;72.74;99755.11;1393083;94;23142;-81
2023/04/24 03:08:54;;;;;;;16.60;10.03;;;;;;;6.60;72.74;99755.11;1396111;94;22344;-82
2023/04/24 03:11:20;;;;;;;12.47;10.10;;;;;;;6.55;73.47;99748.94;1393635;94;22247;-81
2023/04/24 03:13:46;;;;;;;14.63;10.57;;;;;;;6.47;73.56;99751.42;1393179;94;23207;-80
2023/04/24 03:16:13;;;;;;;17.40;9.63;;;;;;;6.49;72.73;99754.75;1399023;93;22216;-84
2023/04/24 03:18:39;;;;;;;14.47;9.37;;;;;;;6.45;75.05;99752.06;1395213;94;22112;-85
2023/04/24 03:21:05;;;;;;;15.47;10.33;;;;;;;6.40;75.75;99746.38;1397114;93;23095;-82
2023/04/24 03:23:31;;;;;;;14.67;8.80;;;;;;;6.36;75.71;99755.48;1398095;94;23300;-82
2023/04/24 03:25:57;;;;;;;18.07;9.13;;;;;;;6.35;76.20;99748.58;1397758;94;22260;-84
2023/04/24 03:28:24;;;;;;;18.67;10.93;;;;;;;6.37;75.09;99751.91;1396930;94;22208;-83
2023/04/24 03:30:51;;;;;;;17.00;9.67;;;;;;;6.38;75.30;99746.50;1382635;94;22225;-81
2023/04/24 03:33:18;;;;;;;14.17;9.47;;;;;;;6.42;75.20;99748.39;1395371;93;22906;-83
2023/04/24 03:35:44;;;;;;;17.37;10.23;;;;;;;6.40;75.33;99747.20;1395735;94;22318;-82
2023/04/24 03:38:10;;;;;;;19.93;9.57;;;;;;;6.33;75.18;99749.56;1396255;93;22758;-83
2023/04/24 03:40:37;;;;;;;15.03;11.23;;;;;;;6.24;75.70;99743.81;1394710;94;22027;-83
2023/04/24 03:43:03;;;;;;;15.53;9.57;;;;;;;6.25;75.34;99752.03;1394916;94;23836;-82
2023/04/24 03:45:29;;;;;;;17.17;9.83;;;;;;;6.25;75.34;99752.03;1397491;94;22057;-81
2023/04/24 03:47:55;;;;;;;15.20;9.37;;;;;;;6.23;76.45;99751.33;1394351;94;22835;-82
2023/04/24 03:50:21;;;;;;;17.87;10.57;;;;;;;6.23;76.20;99751.33;1397745;94;22770;-82
2023/04/24 03:52:48;;;;;;;12.50;9.03;;;;;;;6.29;76.86;99753.41;1396058;93;22178;-82
2023/04/24 03:55:14;;;;;;;21.87;9.30;;;;;;;6.29;76.86;99753.41;1395780;94;22185;-82
2023/04/24 03:57:41;;;;;;;13.13;9.80;;;;;;;6.38;77.22;99760.13;1395386;94;22418;-81
2023/04/24 04:00:08;;;;;;;13.33;9.53;;;;;;;6.43;77.00;99756.62;1397928;94;22325;-81
2023/04/24 04:02:35;;;;;;;16.10;9.47;;;;;;;6.48;77.08;99760.98;1394117;93;22281;-80
2023/04/24 04:05:01;;;;;;;16.40;10.20;;;;;;;6.52;76.94;99754.47;1396046;94;22233;-81
2023/04/24 04:07:29;;;;;;;17.57;10.77;;;;;;;6.55;76.72;99753.70;1393093;93;22297;-81
2023/04/24 04:09:55;;;;;;;19.17;10.17;;;;;;;6.61;76.49;99761.52;1390661;93;22402;-80
2023/04/24 04:12:21;;;;;;;33.27;10.70;;;;;;;6.65;76.64;99761.61;1393290;94;22209;-80
2023/04/24 04:14:47;;;;;;;13.43;8.37;;;;;;;6.67;76.08;99755.70;1398490;94;22232;-81
2023/04/24 04:17:14;;;;;;;16.70;9.37;;;;;;;6.75;76.24;99751.91;1393709;94;23086;-83
2023/04/24 04:19:42;;;;;;;13.87;10.03;;;;;;;6.80;76.44;99749.36;1395848;94;22215;-82
2023/04/24 04:22:08;;;;;;;18.57;10.97;;;;;;;6.83;77.26;99749.08;1394859;94;22229;-82
2023/04/24 04:24:37;;;;;;;17.40;9.13;;;;;;;6.94;76.70;99748.44;1393130;94;22211;-83
2023/04/24 04:27:03;;;;;;;12.37;9.40;;;;;;;6.94;76.70;99748.44;1394454;94;21504;-82
2023/04/24 04:29:31;;;;;;;16.03;10.50;;;;;;;7.06;76.06;99750.42;1393473;93;22838;-82
2023/04/24 04:31:58;;;;;;;16.70;11.67;;;;;;;7.16;76.08;99752.56;1395075;94;22261;-83
2023/04/24 04:34:24;;;;;;;18.00;10.43;;;;;;;7.24;75.73;99753.14;1397493;93;22188;-83
2023/04/24 04:36:50;;;;;;;18.70;11.47;;;;;;;7.34;75.86;99757.09;1393384;94;22202;-84
2023/04/24 04:39:18;;;;;;;16.00;10.90;;;;;;;7.39;76.09;99755.69;1377408;94;22395;-83
2023/04/24 04:41:46;;;;;;;19.10;11.10;;;;;;;7.48;75.73;99753.98;1395064;93;22299;-83
2023/04/24 04:44:13;;;;;;;20.03;10.93;;;;;;;7.58;75.92;99733.70;1393257;94;22344;-83
2023/04/24 04:46:41;;;;;;;14.60;10.27;;;;;;;7.68;76.19;99750.30;1395112;93;21571;-83
2023/04/24 04:49:08;;;;;;;16.17;10.60;;;;;;;7.82;76.24;99758.19;1398119;94;21447;-82
2023/04/24 04:51:35;;;;;;;20.27;9.20;;;;;;;7.94;76.73;99754.90;1396852;94;21409;-84
2023/04/24 04:54:01;;;;;;;20.80;10.07;;;;;;;8.06;76.35;99754.20;1395240;94;21461;-80
2023/04/24 04:56:27;;;;;;;20.97;10.60;;;;;;;8.18;76.00;99753.50;1394172;94;21528;-82
2023/04/24 04:58:53;;;;;;;14.33;9.30;;;;;;;8.29;75.88;99754.12;1396251;94;22379;-83
2023/04/24 05:01:21;;;;;;;18.07;10.23;;;;;;;8.38;75.71;99758.98;1394997;93;21513;-83
2023/04/24 05:03:47;;;;;;;19.60;10.03;;;;;;;8.49;74.84;99760.12;1395138;93;21447;-82
2023/04/24 05:06:13;;;;;;;21.13;8.73;;;;;;;8.58;74.65;99757.89;1396653;94;21655;-82
2023/04/24 05:08:39;;;;;;;15.93;9.27;;;;;;;8.67;74.71;99758.78;1397233;93;21704;-82
2023/04/24 05:11:06;;;;;;;16.90;8.67;;;;;;;8.75;74.34;99756.72;1394870;94;21697;-82
2023/04/24 05:13:32;;;;;;;10.93;7.30;;;;;;;8.83;74.73;99746.20;1395874;93;21543;-80
2023/04/24 05:15:58;;;;;;;12.77;8.30;;;;;;;8.95;74.37;99750.28;1394230;94;21536;-85
2023/04/24 05:18:25;;;;;;;18.63;8.00;;;;;;;9.10;73.89;99752.36;1382535;94;21461;-83
2023/04/24 05:20:51;;;;;;;13.70;7.33;;;;;;;9.26;73.42;99753.77;1393287;94;22557;-81
2023/04/24 05:23:17;;;;;;;10.83;7.53;;;;;;;9.41;73.15;99757.52;1391326;94;22054;-82
2023/04/24 05:25:43;;;;;;;8.80;7.07;;;;;;;9.56;72.37;99755.61;1392797;94;21565;-82
2023/04/24 05:28:09;;;;;;;11.90;7.47;;;;;;;9.73;71.88;99752.56;1396062;94;21491;-83
2023/04/24 05:30:36;;;;;;;12.60;7.77;;;;;;;9.88;71.38;99753.11;1395760;94;21513;-83
2023/04/24 05:33:02;;;;;;;13.77;7.20;;;;;;;10.03;70.99;99751.99;1392971;93;22361;-81
2023/04/24 05:35:29;;;;;;;14.47;7.90;;;;;;;10.17;70.47;99757.98;1396957;94;21495;-82
2023/04/24 05:37:55;;;;;;;11.47;7.20;;;;;;;10.29;69.85;99750.61;1398810;94;22473;-83
2023/04/24 05:40:21;;;;;;;12.03;8.97;;;;;;;10.45;69.56;99749.00;1396170;94;21520;-83
2023/04/24 05:42:48;;;;;;;11.73;7.03;;;;;;;10.57;69.27;99754.30;1392519;93;21654;-84
2023/04/24 05:45:16;;;;;;;9.37;7.43;;;;;;;10.71;68.98;99748.36;1381781;94;21447;-84
2023/04/24 05:47:43;;;;;;;17.90;8.17;;;;;;;10.82;68.63;99745.88;1396707;94;21646;-83
2023/04/24 05:50:11;;;;;;;12.07;8.30;;;;;;;10.94;68.57;99743.73;1396683;94;22363;-84
2023/04/24 05:52:38;;;;;;;10.73;8.57;;;;;;;11.08;68.18;99743.05;1326100;94;21351;-83
2023/04/24 05:55:05;;;;;;;11.90;8.30;;;;;;;11.21;68.05;99746.50;1388740;94;21550;-83
2023/04/24 05:57:31;;;;;;;18.30;8.17;;;;;;;11.35;67.67;99742.34;1395556;94;21439;-85
2023/04/24 05:59:57;;;;;;;10.83;8.17;;;;;;;11.48;67.23;99740.81;1397070;94;22348;-83
2023/04/24 06:02:23;;;;;;;12.20;7.33;;;;;;;11.61;66.46;99734.97;1396604;94;21549;-83
2023/04/24 06:04:50;;;;;;;13.53;7.87;;;;;;;11.77;66.62;99741.19;1395401;94;21506;-84
2023/04/24 06:07:16;;;;;;;9.23;7.23;;;;;;;11.94;66.34;99740.18;1391498;94;21666;-82
2023/04/24 06:09:42;;;;;;;26.83;9.67;;;;;;;12.10;66.25;99732.13;1398583;94;22468;-83
2023/04/24 06:12:09;;;;;;;14.23;7.13;;;;;;;12.26;65.59;99729.89;1397812;94;21498;-83
2023/04/24 06:14:35;;;;;;;11.27;7.30;;;;;;;12.44;65.44;99722.96;1395577;93;21669;-84
2023/04/24 06:17:01;;;;;;;13.17;6.50;;;;;;;12.62;65.40;99722.15;1397149;94;21440;-82
2023/04/24 06:19:27;;;;;;;12.90;7.37;;;;;;;12.79;64.71;99716.21;1395478;94;21631;-80
2023/04/24 06:21:54;;;;;;;7.07;6.07;;;;;;;12.98;64.47;99708.25;1394880;94;21468;-82
2023/04/24 06:24:20;;;;;;;10.63;6.47;;;;;;;13.17;64.02;99702.08;1395376;93;21542;-84
2023/04/24 06:26:48;;;;;;;9.80;6.37;;;;;;;13.36;63.56;99700.25;1395283;94;21558;-81
2023/04/24 06:29:14;;;;;;;14.83;6.33;;;;;;;13.57;62.85;99706.66;1396091;94;21535;-82
2023/04/24 06:31:40;;;;;;;9.30;6.53;;;;;;;13.75;62.00;99708.41;1397605;94;22386;-84
2023/04/24 06:34:06;;;;;;;15.40;6.87;;;;;;;13.90;61.46;99713.73;1393923;94;21454;-82
2023/04/24 06:36:34;;;;;;;11.30;5.90;;;;;;;14.08;61.05;99715.47;1395147;94;21424;-82
2023/04/24 06:39:01;;;;;;;10.27;5.73;;;;;;;14.28;60.55;99725.00;1394679;94;22496;-80
2023/04/24 06:41:28;;;;;;;12.60;5.77;;;;;;;14.47;60.09;99720.05;1399279;94;22415;-83
2023/04/24 06:43:54;;;;;;;14.47;6.27;;;;;;;14.62;59.03;99718.20;1392559;94;21542;-82
2023/04/24 06:46:23;;;;;;;10.97;6.37;;;;;;;14.79;58.35;99712.92;1399163;93;22601;-85
2023/04/24 06:48:48;;;;;;;10.33;5.97;;;;;;;14.96;57.67;99716.62;1391190;94;21528;-86
2023/04/24 06:51:14;;;;;;;11.33;6.07;;;;;;;15.14;57.13;99714.31;1396004;94;21454;-86
2023/04/24 06:53:40;;;;;;;18.30;6.77;;;;;;;15.31;56.41;99719.66;1399286;94;21602;-86
2023/04/24 06:56:07;;;;;;;12.73;5.13;;;;;;;15.51;56.59;99710.95;1397010;94;21476;-87
2023/04/24 06:58:33;;;;;;;9.77;5.30;;;;;;;15.68;55.87;99707.45;1392187;93;21557;-84
2023/04/24 07:00:59;;;;;;;11.53;5.27;;;;;;;15.88;55.36;99708.88;1392849;93;21697;-84
2023/04/24 07:03:25;;;;;;;11.87;6.23;;;;;;;16.07;54.64;99708.12;1392678;94;22110;-85
2023/04/24 07:05:53;;;;;;;7.57;4.83;;;;;;;16.21;53.36;99711.14;1394429;94;22479;-85
2023/04/24 07:08:20;;;;;;;10.40;5.67;;;;;;;16.40;52.32;99714.05;1394273;94;21595;-84
2023/04/24 07:10:46;;;;;;;10.00;5.37;;;;;;;16.55;52.42;99712.55;1389850;94;21475;-86
2023/04/24 07:13:12;;;;;;;7.80;4.83;;;;;;;16.72;52.16;99708.97;1394283;94;22445;-85
2023/04/24 07:15:40;;;;;;;8.93;4.83;;;;;;;16.90;50.97;99705.19;1396937;94;21550;-86
2023/04/24 07:18:16;;;;;;;9.87;4.40;;;;;;;17.09;48.87;99697.67;1390572;94;23073;-84
2023/04/24 07:20:42;;;;;;;8.47;5.07;;;;;;;17.20;49.83;99691.37;1390852;94;22386;-86
2023/04/24 07:23:09;;;;;;;6.93;4.63;;;;;;;17.38;49.38;99699.58;1393764;93;21675;-85
2023/04/24 07:25:35;;;;;;;8.00;5.00;;;;;;;17.55;48.61;99700.77;1393099;94;21491;-85
2023/04/24 07:28:01;;;;;;;11.13;4.57;;;;;;;17.71;48.22;99695.97;1394074;94;21618;-84
2023/04/24 07:30:29;;;;;;;10.10;4.30;;;;;;;17.85;47.37;99695.42;1394320;94;22340;-86
2023/04/24 07:36:55;;;;;;;8.85;4.28;;;;;;;18.10;46.42;99692.84;1394651;94;21550;-84
2023/04/24 07:39:22;;;;;;;8.73;4.57;;;;;;;18.26;45.22;99684.28;1397032;94;21706;-84
2023/04/24 07:41:48;;;;;;;7.47;3.53;;;;;;;18.40;45.74;99683.16;1395193;93;22392;-84
2023/04/24 07:44:14;;;;;;;14.53;4.23;;;;;;;18.46;44.80;99678.79;1394458;94;22467;-85
2023/04/24 07:46:41;;;;;;;14.00;4.77;;;;;;;18.61;44.86;99682.48;1396283;94;21483;-85
2023/04/24 07:49:07;;;;;;;6.90;4.20;;;;;;;18.71;44.15;99683.65;1397874;94;21551;-85
2023/04/24 07:51:38;;;;;;;9.47;4.67;;;;;;;18.75;43.11;99681.37;1393959;94;22215;-84
2023/04/24 07:54:01;;;;;;;4.87;3.90;;;;;;;18.83;43.10;99675.74;1394640;94;22466;-85
2023/04/24 07:56:30;;;;;;;12.67;4.53;;;;;;;18.96;43.10;99680.67;1395412;94;21642;-85
2023/04/24 07:58:55;;;;;;;14.73;5.73;;;;;;;19.12;43.20;99672.88;1395670;94;21498;-86
2023/04/24 08:01:24;;;;;;;11.97;4.27;;;;;;;19.29;43.44;99670.97;1396719;94;22408;-85
2023/04/24 08:03:51;;;;;;;7.13;3.83;;;;;;;19.52;42.94;99666.27;1396740;94;21505;-84
2023/04/24 08:06:17;;;;;;;7.47;4.13;;;;;;;19.71;43.05;99663.06;1398577;94;21751;-85
2023/04/24 08:08:43;;;;;;;5.03;3.58;;;;;;;19.94;42.22;99659.17;1396567;94;21542;-82
2023/04/24 08:11:09;;;;;;;6.70;4.08;;;;;;;20.12;41.89;99658.82;1393993;94;21646;-81
2023/04/24 08:13:37;;;;;;;12.73;4.00;;;;;;;20.25;38.54;99658.61;1395065;94;21638;-80
2023/04/24 08:16:04;;;;;;;10.23;4.08;;;;;;;20.33;39.21;99658.81;1397755;94;21646;-83
2023/04/24 08:18:30;;;;;;;7.53;3.35;;;;;;;20.38;39.08;99652.23;1394308;94;21768;-81
2023/04/24 08:21:01;;;;;;;9.28;3.75;;;;;;;20.56;38.50;99658.89;1391191;94;23014;-80
2023/04/24 08:23:24;;;;;;;6.70;3.45;;;;;;;20.63;38.16;99657.42;1398279;94;22489;-82
2023/04/24 08:25:51;;;;;;;4.92;3.60;;;;;;;20.61;37.89;99647.45;1396217;94;22512;-82
2023/04/24 08:28:19;;;;;;;8.73;3.98;;;;;;;20.28;37.01;99653.62;1395332;94;21476;-82
2023/04/24 08:30:45;;;;;;;6.28;3.42;;;;;;;20.16;38.72;99655.95;1396344;94;22503;-85
2023/04/24 08:33:11;;;;;;;7.25;3.37;;;;;;;20.16;38.46;99649.25;1393145;94;21490;-84
2023/04/24 08:35:38;;;;;;;14.98;4.03;;;;;;;20.29;38.31;99643.16;1394239;94;21650;-80
2023/04/24 08:38:05;;;;;;;9.10;4.22;;;;;;;20.51;38.82;99641.25;1394672;94;21588;-84
2023/04/24 08:40:34;;;;;;;9.75;3.62;;;;;;;20.68;38.53;99640.89;1393618;93;21520;-85
2023/04/24 08:43:01;;;;;;;10.50;3.72;;;;;;;20.72;37.15;99630.52;1392101;94;21653;-81
2023/04/24 08:45:27;;;;;;;7.28;3.52;;;;;;;20.88;37.49;99622.25;1394227;94;21603;-84
2023/04/24 08:47:58;;;;;;;5.65;3.92;;;;;;;20.84;36.73;99624.60;1394326;94;21757;-85
2023/04/24 08:50:22;;;;;;;18.17;5.55;;;;;;;20.77;37.45;99629.27;1392146;94;21512;-81
2023/04/24 08:52:53;;;;;;;9.43;4.28;;;;;;;20.71;37.41;99627.01;1332273;93;21499;-82
2023/04/24 08:55:20;;;;;;;;;;;;;;;20.63;37.26;99634.57;1473955;94;22393;-83
2023/04/24 08:57:56;;;;;;;9.40;3.77;;;;;;;20.42;36.89;99634.58;1332089;94;20454;-81
2023/04/24 09:00:22;;;;;;;11.43;4.87;;;;;;;20.33;37.28;99630.07;1470553;94;21560;-84
2023/04/24 09:02:50;;;;;;;10.15;3.55;;;;;;;20.40;37.00;99629.95;1330647;93;21480;-80
2023/04/24 09:05:18;;;;;;;7.83;4.25;;;;;;;20.61;37.06;99628.10;1336851;93;22250;-82
2023/04/24 09:07:54;;;;;;;4.58;3.47;;;;;;;20.93;36.38;99622.38;1312281;95;21526;-78
2023/04/24 09:10:25;;;;;;;5.92;4.67;;;;;;;21.19;36.20;99621.87;1334288;93;21385;-81
2023/04/24 09:12:52;;;;;;;10.13;4.40;;;;;;;21.37;36.33;99618.23;1477539;93;21518;-79
2023/04/24 09:15:21;;;;;;;8.20;3.83;;;;;;;21.42;36.03;99622.91;1331553;93;21438;-81
2023/04/24 09:17:47;;;;;;;8.73;3.83;;;;;;;21.55;35.57;99619.95;1332539;93;21424;-80
2023/04/24 09:20:14;;;;;;;9.30;3.90;;;;;;;21.57;35.49;99615.66;1332480;93;21378;-82
2023/04/24 09:22:40;;;;;;;10.05;4.80;;;;;;;21.57;35.69;99615.13;1337928;93;22531;-80
2023/04/24 09:25:09;;;;;;;8.40;3.30;;;;;;;21.57;35.92;99612.44;1477574;93;21320;-78
2023/04/24 09:27:35;;;;;;;7.80;3.55;;;;;;;21.54;35.84;99603.49;1476550;93;22251;-81
2023/04/24 09:30:03;;;;;;;8.70;3.50;;;;;;;21.53;34.47;99604.56;1337749;93;21393;-79
2023/04/24 09:32:31;;;;;;;8.68;4.00;;;;;;;21.53;35.90;99605.91;1331186;93;21578;-78
2023/04/24 09:35:14;;;;;;;4.35;3.37;;;;;;;21.40;35.58;99607.52;1380687;93;21473;-80
2023/04/24 09:37:45;;;;;;;6.03;3.42;;;;;;;21.30;35.75;99599.22;1401559;93;21635;-80
2023/04/24 09:40:21;;;;;;;8.45;4.70;;;;;;;21.19;35.85;99599.00;1397112;93;21480;-81
2023/04/24 09:42:54;;;;;;;9.03;3.95;;;;;;;21.02;35.76;99604.81;1335191;93;21378;-85
2023/04/24 09:45:21;;;;;;;12.20;4.28;;;;;;;21.01;36.17;99606.41;1477625;93;21356;-84
2023/04/24 09:47:53;;;;;;;13.48;3.92;;;;;;;21.06;36.45;99599.27;1337333;93;22472;-80
2023/04/24 09:50:20;;;;;;;13.62;3.30;;;;;;;21.09;36.55;99600.14;1330955;93;22236;-84
2023/04/24 09:52:57;;;;;;;8.78;3.70;;;;;;;21.08;36.51;99591.77;1332854;93;21356;-77
2023/04/24 09:55:25;;;;;;;15.88;3.98;;;;;;;21.13;36.54;99589.72;1437727;93;21488;-85
2023/04/24 09:58:04;;;;;;;11.68;3.77;;;;;;;21.24;36.24;99598.83;1331360;93;22183;-81
2023/04/24 10:00:33;;;;;;;13.45;4.33;;;;;;;20.93;36.40;99596.29;1334624;93;21505;-81
2023/04/24 10:03:01;;;;;;;34.83;4.85;;;;;;;20.87;37.03;99596.42;1334193;93;21393;-83
2023/04/24 10:05:36;;;;;;;11.90;4.40;;;;;;;20.83;37.04;99600.62;1335984;93;22259;-82
2023/04/24 10:08:09;;;;;;;15.40;4.35;;;;;;;20.76;37.15;99600.75;1449637;93;21511;-82
2023/04/24 10:10:43;;;;;;;11.38;3.70;;;;;;;20.65;37.08;99602.38;1403329;93;21643;-83
2023/04/24 10:13:12;;;;;;;13.08;4.75;;;;;;;20.55;37.50;99602.69;1397545;93;21636;-83
2023/04/24 10:15:40;;;;;;;10.78;3.80;;;;;;;20.42;37.25;99599.64;1396028;93;21665;-84
2023/04/24 10:18:08;;;;;;;8.68;4.17;;;;;;;20.29;37.63;99604.19;1398235;93;21511;-82
2023/04/24 10:20:37;;;;;;;23.95;11.93;;;;;;;20.18;37.86;99603.64;1399311;93;21554;-83
2023/04/24 10:23:04;;;;;;;14.58;4.80;;;;;;;20.18;38.23;99609.55;1399333;93;22144;-82
2023/04/24 10:25:34;;;;;;;14.85;4.33;;;;;;;20.10;38.46;99603.16;1400104;93;21599;-81
2023/04/24 10:28:00;;;;;;;;;;;;;;;19.99;38.79;99620.87;1335944;93;21422;-83
2023/04/24 10:30:37;;;;;;;11.10;3.87;;;;;;;19.70;39.56;99617.14;1477419;93;20247;-82
2023/04/24 10:33:07;;;;;;;16.82;4.78;;;;;;;19.46;40.19;99617.53;1357375;93;21480;-83
2023/04/24 10:35:44;;;;;;;15.90;4.90;;;;;;;19.16;40.53;99617.77;1395263;93;21795;-85
2023/04/24 10:38:14;;;;;;;17.63;4.17;;;;;;;18.80;41.56;99618.55;1382957;93;21444;-82
2023/04/24 10:40:40;;;;;;;17.00;4.75;;;;;;;18.57;41.89;99623.68;1406996;93;21488;-83
2023/04/24 10:43:10;;;;;;;22.33;4.73;;;;;;;18.40;41.97;99625.55;1377649;93;21576;-83
2023/04/24 10:45:38;;;;;;;12.60;4.17;;;;;;;18.22;42.46;99626.84;1400769;93;22486;-83
2023/04/24 10:48:13;;;;;;;9.15;4.00;;;;;;;18.14;42.75;99625.76;1398303;93;21710;-83
2023/04/24 10:50:53;;;;;;;8.07;3.83;;;;;;;18.01;43.86;99626.16;1383021;93;21715;-81
2023/04/24 10:53:26;;;;;;;16.17;4.25;;;;;;;17.96;43.72;99636.68;1401766;93;21680;-83
2023/04/24 10:56:01;;;;;;;29.27;5.80;;;;;;;17.78;44.95;99631.20;1404034;93;21474;-82
2023/04/24 10:58:46;;;;;;;14.20;4.13;;;;;;;17.79;44.92;99628.85;1403677;93;22614;-82
2023/04/24 11:01:29;;;;;;;13.40;4.60;;;;;;;17.81;45.54;99634.30;1397873;93;22486;-81
2023/04/24 11:03:59;;;;;;;7.07;3.87;;;;;;;17.83;46.06;99634.06;1396077;93;21518;-80
2023/04/24 11:06:37;;;;;;;;;;;;;;;17.83;46.57;99629.23;1399811;93;21525;-81
2023/04/24 11:09:07;;;;;;;14.67;5.83;;;;;;;17.81;47.58;99630.28;1397874;93;20351;-80
2023/04/24 11:11:37;;;;;;;8.70;3.70;;;;;;;17.83;47.35;99630.58;1403530;93;21518;-80
2023/04/24 11:14:06;;;;;;;5.03;4.13;;;;;;;17.74;48.84;99635.33;1401487;93;21481;-81
2023/04/24 11:16:52;;;;;;;7.83;4.47;;;;;;;17.81;48.25;99632.14;1329652;93;21400;-81
2023/04/24 11:19:28;;;;;;;16.50;5.40;;;;;;;17.81;48.49;99634.30;1413165;93;22331;-82
2023/04/24 11:22:03;;;;;;;12.40;4.43;;;;;;;17.75;49.43;99642.31;1402835;93;21556;-81
2023/04/24 11:24:39;;;;;;;12.03;4.43;;;;;;;17.72;49.09;99641.39;1378751;93;22339;-79
2023/04/24 11:27:16;;;;;;;10.87;4.97;;;;;;;17.72;49.99;99633.38;1400076;93;21467;-81
2023/04/24 11:30:00;;;;;;;17.93;5.20;;;;;;;17.71;50.22;99638.43;1401547;93;21562;-80
2023/04/24 11:32:38;;;;;;;15.73;5.63;;;;;;;17.74;50.08;99642.02;1398222;93;22420;-81
2023/04/24 11:35:16;;;;;;;11.17;5.73;;;;;;;17.66;50.70;99647.08;1405561;93;21488;-81
2023/04/24 11:37:49;;;;;;;8.20;5.13;;;;;;;17.68;50.99;99641.01;1398812;93;21697;-81